Sequoia / Kings National Park, CA

10:37 AM PDT on July 31, 2014 (GMT -0700)
Bishop (KBIH) Elev 4144 ft | 37.37 °N, 118.36 °W | Change Station

Current weather conditions updated 41 minutes ago

Clear
Clear
82 °F
Feels Like 82 °F
N
0
Wind Variable Wind from North

Today is forecast to be Warmer than yesterday. Scattered thunderstorms possible.

Today
High -- | Low -- °F
--% Chance of Precip.
Yesterday
High -- | Low -- °F
Precip. -- in
5:57 AM 8:02 PM
Waxing Crescent, 19% visible
Pressure 30.02 in
Visibility 10.0 miles
Clouds Clear
Dew Point 48 °F
Humidity 30%
Rainfall 0.00 in
Snow Depth Not available.
UV 7 out of 12
Pollen 6.60 out of 12
Air Quality Not available.
Flu Activity Not available.
METAR KBIH 311656Z AUTO 00000KT 10SM CLR 28/09 A3016 RMK AO2 SLP164 T02780089

More Conditions Fewer Conditions

Pressure 30.02 in
Visibility 10.0 miles
Clouds Clear
Dew Point 48 °F
Humidity 30%
Rainfall 0.00 in
Snow Depth Not available.
UV 7 out of 12
Pollen 6.60 out of 12
Air Quality Not available.
Flu Activity Not available.
METAR KBIH 311656Z AUTO 00000KT 10SM CLR 28/09 A3016 RMK AO2 SLP164 T02780089

More Conditions Fewer Conditions

10-Day Weather Forecast

Almanac

Astronomy

Jul. 31, 2014 Rise Set
Actual Time 5:57 AM PDT 8:02 PM PDT
Civil Twilight 5:28 AM PDT 8:31 PM PDT
Nautical Twilight 4:53 AM PDT 9:06 PM PDT
Astronomical Twilight 4:14 AM PDT 9:44 PM PDT
Moon 10:22 AM PDT 10:25 PM PDT
Length of Visible Light 15h 02m
Length of Day
14h 04m
Tomorrow will be 1m 46s shorter.
Waxing Crescent, 19% of the Moon is Illuminated
Today
Waxing Crescent
Aug 3
First Quarter
Aug 10
Full
Aug 17
Last Quarter
Aug 25
New

Today's Extremes

State Highs State Lows

Community

WunderPhotos

Upload Photos

1,739,385 photos uploaded!

Nearby

Snow Depth

Station Depth Elevation
Adin Mountain 0 in 6200 ft
Cedar Pass 0 in 7100 ft
Crowder Flat 0 in 5100 ft

Earthquake Activity

City Distance Mag. Time & Date
Inyokern, California 95 miles 2.8 2:34 PM PDT
2014-07-27
Inyokern, California 95 miles 2.5 3:46 AM PDT
2014-07-27
Lone Pine, California 62 miles 2.5 12:36 PM PDT
2014-07-26
Mammoth Lakes, California 24 miles 2.8 1:54 AM PDT
2014-07-26
Minimum magnitude displayed is 2.5.

Coastal Water Temperatures

Place Temperature
No Stations Reporting

Nearby Weather Stations

Station Location Temp. Heat Index Dew Point Humidity Wind Precip. Elev Updated Type
Wilkerson, Bishop, CA 83.0 °F 82 °F 51 °F 33% ENE  at  1.0 mph 0.00 in / hr 4446 ft 10:37 AM PDT Rapid Fire
RAWS ROCK CREEK CA, Crowley Lake, CA 66 °F - 48 °F 53% WNW  at  2 mph 0.00 in / hr 7103 ft 9:04 AM PDT MADIS
SOUTH LAKE, Bishop, CA 60.0 °F - 43 °F 53% WSW  at  1.0 mph - / hr 9648 ft 10:23 AM PDT Normal
BIG PINE CREEK, Big Pine, CA 51.0 °F - - - North  at  - - / hr 9652 ft 10:30 AM PDT Normal
ROCK CREEK LAKES, Bishop, CA 53.0 °F - - - North  at  - - / hr 10019 ft 9:50 AM PDT Normal
SAWMILL, Bishop, CA 60.0 °F - 32 °F 35% North  at  - - / hr 10275 ft 10:24 AM PDT Normal

Show More Stations Show Fewer Stations